sensor_id;sensor_type;location;lat;lon;timestamp;pressure;altitude;pressure_sealevel;temperature;humidity
78745;BME280;68064;53.100;8.824;2023-04-12T00:00:54;100973.50;;;3.55;74.66
78745;BME280;68064;53.100;8.824;2023-04-12T00:01:55;100974.75;;;3.60;76.22
78745;BME280;68064;53.100;8.824;2023-04-12T00:03:07;100972.31;;;3.62;73.72
78745;BME280;68064;53.100;8.824;2023-04-12T00:04:12;100963.81;;;3.61;74.35
78745;BME280;68064;53.100;8.824;2023-04-12T00:05:15;100965.69;;;3.64;76.19
78745;BME280;68064;53.100;8.824;2023-04-12T00:06:21;100965.38;;;3.59;76.47
78745;BME280;68064;53.100;8.824;2023-04-12T00:07:24;100957.47;;;3.66;76.51
78745;BME280;68064;53.100;8.824;2023-04-12T00:08:25;100953.47;;;3.58;74.68
78745;BME280;68064;53.100;8.824;2023-04-12T00:09:30;100948.19;;;3.55;74.54
78745;BME280;68064;53.100;8.824;2023-04-12T00:10:32;100949.84;;;3.55;74.18
78745;BME280;68064;53.100;8.824;2023-04-12T00:11:33;100952.06;;;3.62;74.20
78745;BME280;68064;53.100;8.824;2023-04-12T00:12:35;100945.13;;;3.59;74.48
78745;BME280;68064;53.100;8.824;2023-04-12T00:13:38;100933.34;;;3.60;74.00
78745;BME280;68064;53.100;8.824;2023-04-12T00:14:39;100938.63;;;3.63;76.10
78745;BME280;68064;53.100;8.824;2023-04-12T00:15:40;100926.53;;;3.59;76.17
78745;BME280;68064;53.100;8.824;2023-04-12T00:16:41;100941.16;;;3.63;75.00
78745;BME280;68064;53.100;8.824;2023-04-12T00:17:43;100936.63;;;3.70;73.02
78745;BME280;68064;53.100;8.824;2023-04-12T00:18:44;100939.38;;;3.73;73.09
78745;BME280;68064;53.100;8.824;2023-04-12T00:19:46;100938.06;;;3.67;74.23
78745;BME280;68064;53.100;8.824;2023-04-12T00:20:52;100935.53;;;3.67;73.02
78745;BME280;68064;53.100;8.824;2023-04-12T00:21:54;100926.06;;;3.64;74.15
78745;BME280;68064;53.100;8.824;2023-04-12T00:22:57;100937.97;;;3.65;74.11
78745;BME280;68064;53.100;8.824;2023-04-12T00:23:59;100928.72;;;3.66;75.02
78745;BME280;68064;53.100;8.824;2023-04-12T00:25:01;100925.00;;;3.72;75.83
78745;BME280;68064;53.100;8.824;2023-04-12T00:26:02;100923.13;;;3.70;75.09
78745;BME280;68064;53.100;8.824;2023-04-12T00:27:04;100927.09;;;3.66;75.81
78745;BME280;68064;53.100;8.824;2023-04-12T00:28:05;100922.56;;;3.62;74.29
78745;BME280;68064;53.100;8.824;2023-04-12T00:29:06;100921.00;;;3.64;74.89
78745;BME280;68064;53.100;8.824;2023-04-12T00:30:12;100911.78;;;3.65;75.63
78745;BME280;68064;53.100;8.824;2023-04-12T00:31:13;100897.34;;;3.64;73.42
78745;BME280;68064;53.100;8.824;2023-04-12T00:32:14;100899.44;;;3.81;75.42
78745;BME280;68064;53.100;8.824;2023-04-12T00:33:15;100904.16;;;3.77;74.19
78745;BME280;68064;53.100;8.824;2023-04-12T00:34:16;100895.81;;;3.78;77.26
78745;BME280;68064;53.100;8.824;2023-04-12T00:35:18;100897.44;;;3.77;76.79
78745;BME280;68064;53.100;8.824;2023-04-12T00:36:19;100891.06;;;3.70;75.93
78745;BME280;68064;53.100;8.824;2023-04-12T00:37:20;100893.59;;;3.70;74.63
78745;BME280;68064;53.100;8.824;2023-04-12T00:38:22;100882.28;;;3.65;74.76
78745;BME280;68064;53.100;8.824;2023-04-12T00:39:23;100893.06;;;3.74;76.05
78745;BME280;68064;53.100;8.824;2023-04-12T00:40:25;100887.22;;;3.76;74.16
78745;BME280;68064;53.100;8.824;2023-04-12T00:41:29;100882.84;;;3.73;75.94
78745;BME280;68064;53.100;8.824;2023-04-12T00:42:30;100877.09;;;3.76;76.63
78745;BME280;68064;53.100;8.824;2023-04-12T00:43:33;100874.56;;;3.76;76.43
78745;BME280;68064;53.100;8.824;2023-04-12T00:44:35;100874.16;;;3.69;74.74
78745;BME280;68064;53.100;8.824;2023-04-12T00:45:36;100874.22;;;3.71;75.38
78745;BME280;68064;53.100;8.824;2023-04-12T00:46:40;100869.97;;;3.70;74.97
78745;BME280;68064;53.100;8.824;2023-04-12T00:47:41;100870.72;;;3.69;74.09
78745;BME280;68064;53.100;8.824;2023-04-12T00:48:43;100870.94;;;3.72;75.48
78745;BME280;68064;53.100;8.824;2023-04-12T00:49:44;100865.75;;;3.70;74.25
78745;BME280;68064;53.100;8.824;2023-04-12T00:50:46;100867.75;;;3.74;74.70
78745;BME280;68064;53.100;8.824;2023-04-12T00:51:47;100868.97;;;3.80;74.65
78745;BME280;68064;53.100;8.824;2023-04-12T00:52:51;100862.88;;;3.78;75.85
78745;BME280;68064;53.100;8.824;2023-04-12T00:53:55;100859.47;;;3.77;74.63
78745;BME280;68064;53.100;8.824;2023-04-12T00:54:58;100855.63;;;3.82;77.20
78745;BME280;68064;53.100;8.824;2023-04-12T00:56:00;100844.63;;;3.82;74.24
78745;BME280;68064;53.100;8.824;2023-04-12T00:57:04;100846.59;;;3.86;74.01
78745;BME280;68064;53.100;8.824;2023-04-12T00:58:05;100841.53;;;3.86;73.93
78745;BME280;68064;53.100;8.824;2023-04-12T00:59:07;100838.78;;;3.83;74.40
78745;BME280;68064;53.100;8.824;2023-04-12T01:00:08;100840.53;;;3.84;74.79
78745;BME280;68064;53.100;8.824;2023-04-12T01:01:13;100845.16;;;3.89;73.39
78745;BME280;68064;53.100;8.824;2023-04-12T01:02:15;100836.41;;;3.97;71.96
78745;BME280;68064;53.100;8.824;2023-04-12T01:03:15;100833.56;;;3.93;72.60
78745;BME280;68064;53.100;8.824;2023-04-12T01:04:17;100832.72;;;3.92;72.61
78745;BME280;68064;53.100;8.824;2023-04-12T01:05:22;100821.06;;;3.83;73.39
78745;BME280;68064;53.100;8.824;2023-04-12T01:06:35;100836.00;;;3.91;73.33
78745;BME280;68064;53.100;8.824;2023-04-12T01:07:46;100812.78;;;3.85;72.58
78745;BME280;68064;53.100;8.824;2023-04-12T01:08:59;100825.88;;;3.91;73.59
78745;BME280;68064;53.100;8.824;2023-04-12T01:10:12;100827.44;;;3.89;73.67
78745;BME280;68064;53.100;8.824;2023-04-12T01:11:30;100809.06;;;3.80;72.86
78745;BME280;68064;53.100;8.824;2023-04-12T01:12:39;100828.28;;;3.90;73.96
78745;BME280;68064;53.100;8.824;2023-04-12T01:13:47;100815.28;;;3.97;73.63
78745;BME280;68064;53.100;8.824;2023-04-12T01:14:57;100810.13;;;3.95;72.69
78745;BME280;68064;53.100;8.824;2023-04-12T01:16:06;100802.63;;;3.97;72.85
78745;BME280;68064;53.100;8.824;2023-04-12T01:17:11;100804.47;;;3.99;72.55
78745;BME280;68064;53.100;8.824;2023-04-12T01:18:20;100803.50;;;3.97;73.49
78745;BME280;68064;53.100;8.824;2023-04-12T01:19:36;100794.47;;;4.01;73.78
78745;BME280;68064;53.100;8.824;2023-04-12T01:20:48;100797.75;;;4.00;73.49
78745;BME280;68064;53.100;8.824;2023-04-12T01:22:05;100798.56;;;3.99;74.09
78745;BME280;68064;53.100;8.824;2023-04-12T01:23:18;100794.47;;;4.01;73.13
78745;BME280;68064;53.100;8.824;2023-04-12T01:24:35;100787.75;;;4.01;73.87
78745;BME280;68064;53.100;8.824;2023-04-12T01:25:56;100777.63;;;4.01;72.58
78745;BME280;68064;53.100;8.824;2023-04-12T01:27:00;100797.41;;;4.07;73.70
78745;BME280;68064;53.100;8.824;2023-04-12T01:28:04;100790.69;;;4.07;72.91
78745;BME280;68064;53.100;8.824;2023-04-12T01:29:08;100788.16;;;4.07;72.88
78745;BME280;68064;53.100;8.824;2023-04-12T01:30:11;100788.09;;;4.19;73.51
78745;BME280;68064;53.100;8.824;2023-04-12T01:31:14;100792.66;;;4.11;74.20
78745;BME280;68064;53.100;8.824;2023-04-12T01:32:15;100779.56;;;4.05;74.11
78745;BME280;68064;53.100;8.824;2023-04-12T01:33:19;100773.94;;;4.09;72.89
78745;BME280;68064;53.100;8.824;2023-04-12T01:34:25;100773.38;;;4.13;75.92
78745;BME280;68064;53.100;8.824;2023-04-12T01:35:30;100773.38;;;4.13;74.91
78745;BME280;68064;53.100;8.824;2023-04-12T01:36:33;100765.22;;;4.17;72.57
78745;BME280;68064;53.100;8.824;2023-04-12T01:37:38;100761.03;;;4.18;74.40
78745;BME280;68064;53.100;8.824;2023-04-12T01:38:40;100765.09;;;4.16;74.28
78745;BME280;68064;53.100;8.824;2023-04-12T01:39:43;100751.81;;;4.07;74.69
78745;BME280;68064;53.100;8.824;2023-04-12T01:40:44;100763.03;;;4.10;74.98
78745;BME280;68064;53.100;8.824;2023-04-12T01:41:46;100759.81;;;4.13;74.63
78745;BME280;68064;53.100;8.824;2023-04-12T01:42:47;100756.59;;;4.15;75.42
78745;BME280;68064;53.100;8.824;2023-04-12T01:43:50;100755.63;;;4.13;73.61
78745;BME280;68064;53.100;8.824;2023-04-12T01:44:54;100749.69;;;4.13;73.59
78745;BME280;68064;53.100;8.824;2023-04-12T01:45:55;100754.66;;;4.11;73.79
78745;BME280;68064;53.100;8.824;2023-04-12T01:46:56;100744.53;;;4.11;74.59
78745;BME280;68064;53.100;8.824;2023-04-12T01:47:58;100744.94;;;4.17;75.27
78745;BME280;68064;53.100;8.824;2023-04-12T01:49:02;100745.81;;;4.18;73.56
78745;BME280;68064;53.100;8.824;2023-04-12T01:50:12;100742.91;;;4.25;71.84
78745;BME280;68064;53.100;8.824;2023-04-12T01:51:17;100742.91;;;4.25;73.28
78745;BME280;68064;53.100;8.824;2023-04-12T01:52:22;100736.09;;;4.24;72.27
78745;BME280;68064;53.100;8.824;2023-04-12T01:53:32;100738.63;;;4.24;74.70
78745;BME280;68064;53.100;8.824;2023-04-12T01:54:37;100736.28;;;4.27;73.24
78745;BME280;68064;53.100;8.824;2023-04-12T01:55:43;100738.91;;;4.28;73.87
78745;BME280;68064;53.100;8.824;2023-04-12T01:56:46;100737.81;;;4.25;73.04
78745;BME280;68064;53.100;8.824;2023-04-12T01:57:51;100728.28;;;4.21;73.47
78745;BME280;68064;53.100;8.824;2023-04-12T01:58:55;100726.63;;;4.21;72.76
78745;BME280;68064;53.100;8.824;2023-04-12T01:59:57;100725.09;;;4.23;73.02
78745;BME280;68064;53.100;8.824;2023-04-12T02:01:00;100714.47;;;4.29;74.01
78745;BME280;68064;53.100;8.824;2023-04-12T02:02:02;100720.91;;;4.24;73.70
78745;BME280;68064;53.100;8.824;2023-04-12T02:03:03;100720.22;;;4.26;72.03
78745;BME280;68064;53.100;8.824;2023-04-12T02:04:06;100717.56;;;4.25;72.35
78745;BME280;68064;53.100;8.824;2023-04-12T02:05:08;100719.03;;;4.35;73.82
78745;BME280;68064;53.100;8.824;2023-04-12T02:06:11;100720.00;;;4.23;72.79
78745;BME280;68064;53.100;8.824;2023-04-12T02:07:13;100710.47;;;4.33;72.15
78745;BME280;68064;53.100;8.824;2023-04-12T02:08:15;100716.44;;;4.33;71.59
78745;BME280;68064;53.100;8.824;2023-04-12T02:09:17;100684.53;;;4.23;74.42
78745;BME280;68064;53.100;8.824;2023-04-12T02:10:27;100708.81;;;4.33;71.02
78745;BME280;68064;53.100;8.824;2023-04-12T02:11:29;100704.13;;;4.26;72.31
78745;BME280;68064;53.100;8.824;2023-04-12T02:12:31;100707.63;;;4.28;71.55
78745;BME280;68064;53.100;8.824;2023-04-12T02:13:33;100695.56;;;4.24;71.96
78745;BME280;68064;53.100;8.824;2023-04-12T02:14:36;100690.88;;;4.30;72.57
78745;BME280;68064;53.100;8.824;2023-04-12T02:15:38;100696.94;;;4.32;72.51
78745;BME280;68064;53.100;8.824;2023-04-12T02:16:39;100690.09;;;4.31;71.49
78745;BME280;68064;53.100;8.824;2023-04-12T02:17:40;100695.66;;;4.39;73.15
78745;BME280;68064;53.100;8.824;2023-04-12T02:18:42;100684.25;;;4.32;72.40
78745;BME280;68064;53.100;8.824;2023-04-12T02:19:43;100679.69;;;4.26;72.64
78745;BME280;68064;53.100;8.824;2023-04-12T02:20:44;100686.03;;;4.33;73.26
78745;BME280;68064;53.100;8.824;2023-04-12T02:21:45;100677.91;;;4.25;73.38
78745;BME280;68064;53.100;8.824;2023-04-12T02:22:47;100680.84;;;4.32;72.08
78745;BME280;68064;53.100;8.824;2023-04-12T02:23:50;100681.16;;;4.36;72.78
78745;BME280;68064;53.100;8.824;2023-04-12T02:24:54;100680.94;;;4.33;73.42
78745;BME280;68064;53.100;8.824;2023-04-12T02:25:56;100672.56;;;4.34;72.66
78745;BME280;68064;53.100;8.824;2023-04-12T02:26:59;100661.81;;;4.25;72.66
78745;BME280;68064;53.100;8.824;2023-04-12T02:28:02;100662.13;;;4.30;71.66
78745;BME280;68064;53.100;8.824;2023-04-12T02:29:09;100668.47;;;4.36;72.60
78745;BME280;68064;53.100;8.824;2023-04-12T02:30:13;100661.75;;;4.37;75.21
78745;BME280;68064;53.100;8.824;2023-04-12T02:31:17;100665.81;;;4.35;73.18
78745;BME280;68064;53.100;8.824;2023-04-12T02:32:19;100650.63;;;4.21;72.21
78745;BME280;68064;53.100;8.824;2023-04-12T02:33:21;100665.75;;;4.33;72.26
78745;BME280;68064;53.100;8.824;2023-04-12T02:34:22;100657.06;;;4.30;73.06
78745;BME280;68064;53.100;8.824;2023-04-12T02:35:24;100661.94;;;4.40;71.58
78745;BME280;68064;53.100;8.824;2023-04-12T02:36:25;100648.22;;;4.36;71.49
78745;BME280;68064;53.100;8.824;2023-04-12T02:37:29;100640.69;;;4.38;71.54
78745;BME280;68064;53.100;8.824;2023-04-12T02:38:30;100652.69;;;4.40;73.79
78745;BME280;68064;53.100;8.824;2023-04-12T02:39:35;100650.16;;;4.40;72.33
78745;BME280;68064;53.100;8.824;2023-04-12T02:40:46;100636.50;;;4.38;71.10
78745;BME280;68064;53.100;8.824;2023-04-12T02:41:50;100631.44;;;4.38;71.05
78745;BME280;68064;53.100;8.824;2023-04-12T02:42:51;100631.34;;;4.37;71.39
78745;BME280;68064;53.100;8.824;2023-04-12T02:43:55;100634.47;;;4.46;71.58
78745;BME280;68064;53.100;8.824;2023-04-12T02:45:03;100633.00;;;4.49;70.73
78745;BME280;68064;53.100;8.824;2023-04-12T02:46:08;100615.66;;;4.42;71.58
78745;BME280;68064;53.100;8.824;2023-04-12T02:47:09;100616.41;;;4.41;73.41
78745;BME280;68064;53.100;8.824;2023-04-12T02:48:11;100621.69;;;4.44;72.81
78745;BME280;68064;53.100;8.824;2023-04-12T02:49:13;100620.91;;;4.45;71.80
78745;BME280;68064;53.100;8.824;2023-04-12T02:50:14;100612.34;;;4.43;72.15
78745;BME280;68064;53.100;8.824;2023-04-12T02:51:15;100608.31;;;4.47;73.19
78745;BME280;68064;53.100;8.824;2023-04-12T02:52:18;100608.44;;;4.48;71.63
78745;BME280;68064;53.100;8.824;2023-04-12T02:53:19;100599.88;;;4.46;71.54
78745;BME280;68064;53.100;8.824;2023-04-12T02:54:21;100583.97;;;4.36;72.63
78745;BME280;68064;53.100;8.824;2023-04-12T02:55:22;100582.59;;;4.41;72.52
78745;BME280;68064;53.100;8.824;2023-04-12T02:56:24;100583.78;;;4.46;72.37
78745;BME280;68064;53.100;8.824;2023-04-12T02:57:25;100589.81;;;4.48;72.07
78745;BME280;68064;53.100;8.824;2023-04-12T02:58:27;100586.13;;;4.43;72.19
78745;BME280;68064;53.100;8.824;2023-04-12T02:59:29;100583.19;;;4.50;72.93
78745;BME280;68064;53.100;8.824;2023-04-12T03:00:31;100581.50;;;4.50;71.93
78745;BME280;68064;53.100;8.824;2023-04-12T03:01:37;100581.44;;;4.49;73.04
78745;BME280;68064;53.100;8.824;2023-04-12T03:02:42;100583.47;;;4.54;71.72
78745;BME280;68064;53.100;8.824;2023-04-12T03:03:44;100574.09;;;4.53;71.59
78745;BME280;68064;53.100;8.824;2023-04-12T03:04:48;100569.91;;;4.54;70.61
78745;BME280;68064;53.100;8.824;2023-04-12T03:05:50;100562.81;;;4.48;71.67
78745;BME280;68064;53.100;8.824;2023-04-12T03:06:52;100553.44;;;4.47;71.81
78745;BME280;68064;53.100;8.824;2023-04-12T03:07:54;100563.59;;;4.47;71.80
78745;BME280;68064;53.100;8.824;2023-04-12T03:08:55;100555.97;;;4.47;72.06
78745;BME280;68064;53.100;8.824;2023-04-12T03:09:56;100564.38;;;4.46;71.58
78745;BME280;68064;53.100;8.824;2023-04-12T03:10:57;100563.59;;;4.47;72.80
78745;BME280;68064;53.100;8.824;2023-04-12T03:11:58;100561.84;;;4.46;72.66
78745;BME280;68064;53.100;8.824;2023-04-12T03:13:00;100539.81;;;4.45;74.71
78745;BME280;68064;53.100;8.824;2023-04-12T03:14:01;100551.72;;;4.46;71.85
78745;BME280;68064;53.100;8.824;2023-04-12T03:15:02;100552.00;;;4.51;72.36
78745;BME280;68064;53.100;8.824;2023-04-12T03:18:01;100538.81;;;4.56;70.63
78745;BME280;68064;53.100;8.824;2023-04-12T03:19:03;100545.44;;;4.54;71.79
78745;BME280;68064;53.100;8.824;2023-04-12T03:20:05;100531.91;;;4.54;72.21
78745;BME280;68064;53.100;8.824;2023-04-12T03:21:07;100533.56;;;4.53;73.29
78745;BME280;68064;53.100;8.824;2023-04-12T03:22:08;100541.16;;;4.53;72.48
78745;BME280;68064;53.100;8.824;2023-04-12T03:23:09;100527.72;;;4.54;70.44
78745;BME280;68064;53.100;8.824;2023-04-12T03:24:10;100531.19;;;4.56;72.03
78745;BME280;68064;53.100;8.824;2023-04-12T03:25:11;100533.97;;;4.59;72.68
78745;BME280;68064;53.100;8.824;2023-04-12T03:26:12;100529.56;;;4.57;72.01
78745;BME280;68064;53.100;8.824;2023-04-12T03:27:13;100527.81;;;4.56;72.77
78745;BME280;68064;53.100;8.824;2023-04-12T03:28:14;100526.94;;;4.55;71.68
78745;BME280;68064;53.100;8.824;2023-04-12T03:29:15;100525.28;;;4.56;72.56
78745;BME280;68064;53.100;8.824;2023-04-12T03:30:16;100519.03;;;4.51;72.81
78745;BME280;68064;53.100;8.824;2023-04-12T03:31:17;100514.66;;;4.48;72.03
78745;BME280;68064;53.100;8.824;2023-04-12T03:32:19;100515.91;;;4.55;72.17
78745;BME280;68064;53.100;8.824;2023-04-12T03:33:21;100511.72;;;4.55;71.36
78745;BME280;68064;53.100;8.824;2023-04-12T03:34:23;100505.00;;;4.56;71.76
78745;BME280;68064;53.100;8.824;2023-04-12T03:35:24;100507.53;;;4.56;70.45
78745;BME280;68064;53.100;8.824;2023-04-12T03:36:26;100499.13;;;4.57;72.68
78745;BME280;68064;53.100;8.824;2023-04-12T03:37:27;100504.31;;;4.58;71.77
78745;BME280;68064;53.100;8.824;2023-04-12T03:38:28;100500.72;;;4.55;71.47
78745;BME280;68064;53.100;8.824;2023-04-12T03:39:29;100499.94;;;4.56;71.58
78745;BME280;68064;53.100;8.824;2023-04-12T03:40:30;100500.00;;;4.57;72.06
78745;BME280;68064;53.100;8.824;2023-04-12T03:41:35;100498.19;;;4.55;72.54
78745;BME280;68064;53.100;8.824;2023-04-12T03:42:36;100495.53;;;4.53;72.57
78745;BME280;68064;53.100;8.824;2023-04-12T03:43:37;100495.47;;;4.52;72.74
78745;BME280;68064;53.100;8.824;2023-04-12T03:44:38;100493.81;;;4.52;71.56
78745;BME280;68064;53.100;8.824;2023-04-12T03:45:39;100487.34;;;4.57;71.86
78745;BME280;68064;53.100;8.824;2023-04-12T03:46:40;100495.63;;;4.55;71.63
78745;BME280;68064;53.100;8.824;2023-04-12T03:47:41;100494.88;;;4.56;71.67
78745;BME280;68064;53.100;8.824;2023-04-12T03:48:47;100492.22;;;4.54;71.85
78745;BME280;68064;53.100;8.824;2023-04-12T03:49:49;100500.00;;;4.57;70.66
78745;BME280;68064;53.100;8.824;2023-04-12T03:50:50;100484.53;;;4.53;72.03
78745;BME280;68064;53.100;8.824;2023-04-12T03:51:51;100489.00;;;4.57;71.29
78745;BME280;68064;53.100;8.824;2023-04-12T03:52:52;100484.03;;;4.58;71.10
78745;BME280;68064;53.100;8.824;2023-04-12T03:53:55;100487.44;;;4.59;70.80
78745;BME280;68064;53.100;8.824;2023-04-12T03:54:59;100483.16;;;4.58;71.06
78745;BME280;68064;53.100;8.824;2023-04-12T03:56:00;100474.59;;;4.56;71.11
78745;BME280;68064;53.100;8.824;2023-04-12T03:57:01;100478.09;;;4.58;71.68
78745;BME280;68064;53.100;8.824;2023-04-12T03:58:02;100468.72;;;4.57;71.53
78745;BME280;68064;53.100;8.824;2023-04-12T03:59:04;100471.25;;;4.57;73.68
78745;BME280;68064;53.100;8.824;2023-04-12T04:00:10;100473.72;;;4.55;72.54
78745;BME280;68064;53.100;8.824;2023-04-12T04:01:11;100469.53;;;4.56;71.86
78745;BME280;68064;53.100;8.824;2023-04-12T04:02:13;100466.88;;;4.54;71.98
78745;BME280;68064;53.100;8.824;2023-04-12T04:03:16;100469.22;;;4.51;72.25
78745;BME280;68064;53.100;8.824;2023-04-12T04:04:18;100470.88;;;4.51;73.09
78745;BME280;68064;53.100;8.824;2023-04-12T04:05:20;100471.88;;;4.53;72.89
78745;BME280;68064;53.100;8.824;2023-04-12T04:06:21;100465.22;;;4.55;70.86
78745;BME280;68064;53.100;8.824;2023-04-12T04:07:22;100469.59;;;4.57;71.27
78745;BME280;68064;53.100;8.824;2023-04-12T04:08:23;100474.59;;;4.56;72.61
78745;BME280;68064;53.100;8.824;2023-04-12T04:09:24;100470.69;;;4.48;73.38
78745;BME280;68064;53.100;8.824;2023-04-12T04:10:26;100462.72;;;4.42;72.55
78745;BME280;68064;53.100;8.824;2023-04-12T04:11:27;100470.44;;;4.43;72.45
78745;BME280;68064;53.100;8.824;2023-04-12T04:12:28;100466.50;;;4.48;70.84
78745;BME280;68064;53.100;8.824;2023-04-12T04:13:32;100464.56;;;4.44;73.57
78745;BME280;68064;53.100;8.824;2023-04-12T04:14:36;100463.78;;;4.45;71.96
78745;BME280;68064;53.100;8.824;2023-04-12T04:15:37;100457.84;;;4.45;71.65
78745;BME280;68064;53.100;8.824;2023-04-12T04:16:41;100453.66;;;4.45;71.74
78745;BME280;68064;53.100;8.824;2023-04-12T04:17:42;100442.81;;;4.48;72.23
78745;BME280;68064;53.100;8.824;2023-04-12T04:18:43;100436.69;;;4.44;72.19
78745;BME280;68064;53.100;8.824;2023-04-12T04:19:47;100442.38;;;4.40;72.00
78745;BME280;68064;53.100;8.824;2023-04-12T04:20:49;100438.63;;;4.48;71.67
78745;BME280;68064;53.100;8.824;2023-04-12T04:21:51;100438.63;;;4.48;71.63
78745;BME280;68064;53.100;8.824;2023-04-12T04:22:52;100444.41;;;4.46;71.49
78745;BME280;68064;53.100;8.824;2023-04-12T04:23:53;100437.16;;;4.52;71.39
78745;BME280;68064;53.100;8.824;2023-04-12T04:24:54;100432.69;;;4.48;71.58
78745;BME280;68064;53.100;8.824;2023-04-12T04:25:55;100432.69;;;4.48;71.82
78745;BME280;68064;53.100;8.824;2023-04-12T04:26:56;100432.50;;;4.45;71.80
78745;BME280;68064;53.100;8.824;2023-04-12T04:27:57;100431.44;;;4.41;72.65
78745;BME280;68064;53.100;8.824;2023-04-12T04:29:00;100428.84;;;4.40;74.04
78745;BME280;68064;53.100;8.824;2023-04-12T04:30:01;100431.06;;;4.35;72.96
78745;BME280;68064;53.100;8.824;2023-04-12T04:31:04;100436.25;;;4.37;72.02
78745;BME280;68064;53.100;8.824;2023-04-12T04:32:09;100425.13;;;4.35;71.64
78745;BME280;68064;53.100;8.824;2023-04-12T04:33:11;100433.03;;;4.39;71.18
78745;BME280;68064;53.100;8.824;2023-04-12T04:34:12;100425.31;;;4.38;71.75
78745;BME280;68064;53.100;8.824;2023-04-12T04:35:15;100424.06;;;4.31;72.47
78745;BME280;68064;53.100;8.824;2023-04-12T04:36:16;100435.00;;;4.30;72.24
78745;BME280;68064;53.100;8.824;2023-04-12T04:37:17;100428.28;;;4.31;72.58
78745;BME280;68064;53.100;8.824;2023-04-12T04:38:20;100423.81;;;4.26;73.75
78745;BME280;68064;53.100;8.824;2023-04-12T04:39:22;100426.34;;;4.26;71.92
78745;BME280;68064;53.100;8.824;2023-04-12T04:40:23;100431.00;;;4.34;70.79
78745;BME280;68064;53.100;8.824;2023-04-12T04:41:25;100420.75;;;4.32;71.46
78745;BME280;68064;53.100;8.824;2023-04-12T04:42:27;100426.00;;;4.35;72.46
78745;BME280;68064;53.100;8.824;2023-04-12T04:43:28;100427.41;;;4.30;71.90
78745;BME280;68064;53.100;8.824;2023-04-12T04:44:29;100428.94;;;4.28;72.29
78745;BME280;68064;53.100;8.824;2023-04-12T04:45:31;100428.28;;;4.31;71.55
78745;BME280;68064;53.100;8.824;2023-04-12T04:46:32;100429.06;;;4.30;72.86
78745;BME280;68064;53.100;8.824;2023-04-12T04:47:33;100421.97;;;4.24;72.22
78745;BME280;68064;53.100;8.824;2023-04-12T04:48:34;100419.44;;;4.24;71.41
78745;BME280;68064;53.100;8.824;2023-04-12T04:49:35;100417.66;;;4.23;71.91
78745;BME280;68064;53.100;8.824;2023-04-12T04:50:38;100419.44;;;4.24;71.95
78745;BME280;68064;53.100;8.824;2023-04-12T04:51:39;100414.84;;;4.18;72.53
78745;BME280;68064;53.100;8.824;2023-04-12T04:52:40;100410.41;;;4.14;74.58
78745;BME280;68064;53.100;8.824;2023-04-12T04:53:41;100403.47;;;4.12;74.22
78745;BME280;68064;53.100;8.824;2023-04-12T04:54:42;100416.22;;;4.13;74.09
78745;BME280;68064;53.100;8.824;2023-04-12T04:55:44;100404.06;;;4.08;74.34
78745;BME280;68064;53.100;8.824;2023-04-12T04:56:45;100405.13;;;4.11;72.35
78745;BME280;68064;53.100;8.824;2023-04-12T04:57:46;100399.09;;;4.09;72.80
78745;BME280;68064;53.100;8.824;2023-04-12T04:58:47;100397.09;;;4.18;72.28
78745;BME280;68064;53.100;8.824;2023-04-12T04:59:48;100402.97;;;4.17;71.86
78745;BME280;68064;53.100;8.824;2023-04-12T05:00:49;100394.56;;;4.18;72.98
78745;BME280;68064;53.100;8.824;2023-04-12T05:01:50;100394.88;;;4.23;71.24
78745;BME280;68064;53.100;8.824;2023-04-12T05:02:51;100395.75;;;4.23;71.68
78745;BME280;68064;53.100;8.824;2023-04-12T05:03:53;100394.88;;;4.23;72.78
78745;BME280;68064;53.100;8.824;2023-04-12T05:04:54;100389.81;;;4.23;71.89
78745;BME280;68064;53.100;8.824;2023-04-12T05:05:59;100395.38;;;4.17;73.24
78745;BME280;68064;53.100;8.824;2023-04-12T05:07:01;100387.84;;;4.19;71.68
78745;BME280;68064;53.100;8.824;2023-04-12T05:08:03;100381.13;;;4.19;72.51
78745;BME280;68064;53.100;8.824;2023-04-12T05:09:04;100373.47;;;4.18;72.30
78745;BME280;68064;53.100;8.824;2023-04-12T05:10:06;100381.25;;;4.21;72.05
78745;BME280;68064;53.100;8.824;2023-04-12T05:11:07;100376.19;;;4.21;72.37
78745;BME280;68064;53.100;8.824;2023-04-12T05:12:08;100377.66;;;4.17;73.53
78745;BME280;68064;53.100;8.824;2023-04-12T05:13:09;100372.28;;;4.13;72.70
78745;BME280;68064;53.100;8.824;2023-04-12T05:14:11;100372.47;;;4.16;72.19
78745;BME280;68064;53.100;8.824;2023-04-12T05:15:12;100369.94;;;4.16;72.80
78745;BME280;68064;53.100;8.824;2023-04-12T05:16:13;100368.47;;;4.19;72.18
78745;BME280;68064;53.100;8.824;2023-04-12T05:17:14;100366.91;;;4.21;73.22
78745;BME280;68064;53.100;8.824;2023-04-12T05:18:15;100371.19;;;4.22;72.77
78745;BME280;68064;53.100;8.824;2023-04-12T05:19:16;100361.34;;;4.27;72.87
78745;BME280;68064;53.100;8.824;2023-04-12T05:20:18;100371.22;;;4.37;72.89
78745;BME280;68064;53.100;8.824;2023-04-12T05:21:20;100370.25;;;4.35;73.39
78745;BME280;68064;53.100;8.824;2023-04-12T05:22:21;100364.25;;;4.33;71.61
78745;BME280;68064;53.100;8.824;2023-04-12T05:23:22;100369.19;;;4.32;71.73
78745;BME280;68064;53.100;8.824;2023-04-12T05:24:24;100367.31;;;4.42;74.19
78745;BME280;68064;53.100;8.824;2023-04-12T05:25:25;100358.75;;;4.40;72.26
78745;BME280;68064;53.100;8.824;2023-04-12T05:26:26;100350.34;;;4.41;71.54
78745;BME280;68064;53.100;8.824;2023-04-12T05:27:28;100357.38;;;4.45;71.25
78745;BME280;68064;53.100;8.824;2023-04-12T05:28:29;100354.06;;;4.46;72.44
78745;BME280;68064;53.100;8.824;2023-04-12T05:29:33;100359.13;;;4.46;70.92
78745;BME280;68064;53.100;8.824;2023-04-12T05:30:34;100361.03;;;4.50;72.85
78745;BME280;68064;53.100;8.824;2023-04-12T05:31:35;100357.66;;;4.50;71.48
78745;BME280;68064;53.100;8.824;2023-04-12T05:32:36;100352.47;;;4.48;71.04
78745;BME280;68064;53.100;8.824;2023-04-12T05:33:38;100360.44;;;4.54;71.41
78745;BME280;68064;53.100;8.824;2023-04-12T05:34:38;100351.88;;;4.52;71.31